sensor_id;sensor_type;location;lat;lon;timestamp;P1;durP1;ratioP1;P2;durP2;ratioP2
25359;SDS011;13311;51.386;0.016;2022-07-11T00:02:59;1.92;;;1.10;;
25359;SDS011;13311;51.386;0.016;2022-07-11T00:08:00;1.52;;;0.85;;
25359;SDS011;13311;51.386;0.016;2022-07-11T00:13:01;4.03;;;1.55;;
25359;SDS011;13311;51.386;0.016;2022-07-11T00:18:01;5.10;;;1.17;;
25359;SDS011;13311;51.386;0.016;2022-07-11T00:23:02;1.27;;;1.08;;
25359;SDS011;13311;51.386;0.016;2022-07-11T00:28:03;1.92;;;1.13;;
25359;SDS011;13311;51.386;0.016;2022-07-11T00:33:04;4.07;;;1.08;;
25359;SDS011;13311;51.386;0.016;2022-07-11T00:38:05;3.08;;;1.40;;
25359;SDS011;13311;51.386;0.016;2022-07-11T00:43:06;4.25;;;1.45;;
25359;SDS011;13311;51.386;0.016;2022-07-11T00:48:07;3.03;;;1.02;;
25359;SDS011;13311;51.386;0.016;2022-07-11T00:53:08;1.45;;;1.00;;
25359;SDS011;13311;51.386;0.016;2022-07-11T00:58:09;1.08;;;0.98;;
25359;SDS011;13311;51.386;0.016;2022-07-11T01:03:09;1.90;;;1.00;;
25359;SDS011;13311;51.386;0.016;2022-07-11T01:08:10;5.13;;;1.10;;
25359;SDS011;13311;51.386;0.016;2022-07-11T01:13:11;2.47;;;0.90;;
25359;SDS011;13311;51.386;0.016;2022-07-11T01:18:12;6.18;;;1.48;;
25359;SDS011;13311;51.386;0.016;2022-07-11T01:23:12;2.00;;;1.20;;
25359;SDS011;13311;51.386;0.016;2022-07-11T01:28:13;1.73;;;1.00;;
25359;SDS011;13311;51.386;0.016;2022-07-11T01:33:14;1.17;;;0.90;;
25359;SDS011;13311;51.386;0.016;2022-07-11T01:38:15;1.58;;;1.00;;
25359;SDS011;13311;51.386;0.016;2022-07-11T01:43:15;1.48;;;0.82;;
25359;SDS011;13311;51.386;0.016;2022-07-11T01:48:16;2.75;;;1.30;;
25359;SDS011;13311;51.386;0.016;2022-07-11T01:53:17;1.27;;;0.88;;
25359;SDS011;13311;51.386;0.016;2022-07-11T01:58:18;1.73;;;1.20;;
25359;SDS011;13311;51.386;0.016;2022-07-11T02:03:19;3.97;;;1.00;;
25359;SDS011;13311;51.386;0.016;2022-07-11T02:08:20;0.95;;;0.95;;
25359;SDS011;13311;51.386;0.016;2022-07-11T02:13:21;1.63;;;0.95;;
25359;SDS011;13311;51.386;0.016;2022-07-11T02:18:25;2.45;;;0.85;;
25359;SDS011;13311;51.386;0.016;2022-07-11T02:23:26;2.28;;;1.10;;
25359;SDS011;13311;51.386;0.016;2022-07-11T02:28:27;1.40;;;1.10;;
25359;SDS011;13311;51.386;0.016;2022-07-11T02:33:28;3.05;;;1.23;;
25359;SDS011;13311;51.386;0.016;2022-07-11T02:38:28;1.95;;;1.30;;
25359;SDS011;13311;51.386;0.016;2022-07-11T02:43:29;1.77;;;1.02;;
25359;SDS011;13311;51.386;0.016;2022-07-11T02:48:30;2.50;;;1.10;;
25359;SDS011;13311;51.386;0.016;2022-07-11T02:53:31;2.63;;;1.00;;
25359;SDS011;13311;51.386;0.016;2022-07-11T02:58:32;2.15;;;1.23;;
25359;SDS011;13311;51.386;0.016;2022-07-11T03:03:33;2.88;;;1.20;;
25359;SDS011;13311;51.386;0.016;2022-07-11T03:08:34;1.45;;;1.17;;
25359;SDS011;13311;51.386;0.016;2022-07-11T03:13:36;3.53;;;1.52;;
25359;SDS011;13311;51.386;0.016;2022-07-11T03:18:37;1.80;;;1.20;;
25359;SDS011;13311;51.386;0.016;2022-07-11T03:23:37;2.15;;;0.93;;
25359;SDS011;13311;51.386;0.016;2022-07-11T03:28:38;2.95;;;1.60;;
25359;SDS011;13311;51.386;0.016;2022-07-11T03:33:39;2.50;;;1.08;;
25359;SDS011;13311;51.386;0.016;2022-07-11T03:38:39;1.95;;;1.05;;
25359;SDS011;13311;51.386;0.016;2022-07-11T03:43:40;2.70;;;1.40;;
25359;SDS011;13311;51.386;0.016;2022-07-11T03:48:41;2.58;;;1.35;;
25359;SDS011;13311;51.386;0.016;2022-07-11T03:53:42;2.30;;;1.35;;
25359;SDS011;13311;51.386;0.016;2022-07-11T03:58:43;1.13;;;1.00;;
25359;SDS011;13311;51.386;0.016;2022-07-11T04:03:44;1.83;;;1.42;;
25359;SDS011;13311;51.386;0.016;2022-07-11T04:08:46;5.93;;;1.40;;
25359;SDS011;13311;51.386;0.016;2022-07-11T04:13:46;4.95;;;1.70;;
25359;SDS011;13311;51.386;0.016;2022-07-11T04:18:47;2.35;;;1.45;;
25359;SDS011;13311;51.386;0.016;2022-07-11T04:23:48;1.70;;;1.40;;
25359;SDS011;13311;51.386;0.016;2022-07-11T04:28:49;2.65;;;1.70;;
25359;SDS011;13311;51.386;0.016;2022-07-11T04:33:49;4.22;;;1.70;;
25359;SDS011;13311;51.386;0.016;2022-07-11T04:38:50;2.13;;;1.70;;
25359;SDS011;13311;51.386;0.016;2022-07-11T04:43:51;2.05;;;1.55;;
25359;SDS011;13311;51.386;0.016;2022-07-11T04:48:52;1.58;;;1.25;;
25359;SDS011;13311;51.386;0.016;2022-07-11T04:53:53;1.50;;;1.30;;
25359;SDS011;13311;51.386;0.016;2022-07-11T04:58:53;2.38;;;1.20;;
25359;SDS011;13311;51.386;0.016;2022-07-11T05:03:54;1.80;;;1.60;;
25359;SDS011;13311;51.386;0.016;2022-07-11T05:08:56;2.72;;;1.35;;
25359;SDS011;13311;51.386;0.016;2022-07-11T05:13:56;2.55;;;1.70;;
25359;SDS011;13311;51.386;0.016;2022-07-11T05:18:57;2.97;;;1.90;;
25359;SDS011;13311;51.386;0.016;2022-07-11T05:23:58;3.03;;;1.50;;
25359;SDS011;13311;51.386;0.016;2022-07-11T05:28:59;3.10;;;1.77;;
25359;SDS011;13311;51.386;0.016;2022-07-11T05:33:59;1.77;;;1.45;;
25359;SDS011;13311;51.386;0.016;2022-07-11T05:39:00;2.47;;;1.33;;
25359;SDS011;13311;51.386;0.016;2022-07-11T05:44:01;4.18;;;2.00;;
25359;SDS011;13311;51.386;0.016;2022-07-11T05:49:02;3.80;;;1.30;;
25359;SDS011;13311;51.386;0.016;2022-07-11T05:54:02;3.80;;;2.10;;
25359;SDS011;13311;51.386;0.016;2022-07-11T05:59:03;5.38;;;1.92;;
25359;SDS011;13311;51.386;0.016;2022-07-11T06:04:04;2.15;;;1.50;;
25359;SDS011;13311;51.386;0.016;2022-07-11T06:09:05;2.25;;;1.73;;
25359;SDS011;13311;51.386;0.016;2022-07-11T06:14:06;3.55;;;1.80;;
25359;SDS011;13311;51.386;0.016;2022-07-11T06:19:07;4.30;;;1.40;;
25359;SDS011;13311;51.386;0.016;2022-07-11T06:24:08;6.57;;;1.50;;
25359;SDS011;13311;51.386;0.016;2022-07-11T06:29:09;3.35;;;1.35;;
25359;SDS011;13311;51.386;0.016;2022-07-11T06:34:10;3.00;;;1.27;;
25359;SDS011;13311;51.386;0.016;2022-07-11T06:39:10;2.85;;;1.55;;
25359;SDS011;13311;51.386;0.016;2022-07-11T06:44:11;2.08;;;1.40;;
25359;SDS011;13311;51.386;0.016;2022-07-11T06:49:12;2.58;;;1.42;;
25359;SDS011;13311;51.386;0.016;2022-07-11T06:54:13;2.67;;;1.35;;
25359;SDS011;13311;51.386;0.016;2022-07-11T06:59:14;9.40;;;2.67;;
25359;SDS011;13311;51.386;0.016;2022-07-11T07:04:14;6.78;;;1.60;;
25359;SDS011;13311;51.386;0.016;2022-07-11T07:09:15;1.77;;;1.15;;
25359;SDS011;13311;51.386;0.016;2022-07-11T07:14:16;5.28;;;2.15;;
25359;SDS011;13311;51.386;0.016;2022-07-11T07:19:17;1.98;;;1.50;;
25359;SDS011;13311;51.386;0.016;2022-07-11T07:24:17;2.15;;;1.30;;
25359;SDS011;13311;51.386;0.016;2022-07-11T07:29:18;2.22;;;1.20;;
25359;SDS011;13311;51.386;0.016;2022-07-11T07:34:19;2.38;;;1.27;;
25359;SDS011;13311;51.386;0.016;2022-07-11T07:39:21;7.75;;;1.80;;
25359;SDS011;13311;51.386;0.016;2022-07-11T07:44:22;2.63;;;1.58;;
25359;SDS011;13311;51.386;0.016;2022-07-11T07:49:23;3.03;;;1.30;;
25359;SDS011;13311;51.386;0.016;2022-07-11T07:54:23;1.77;;;1.00;;
25359;SDS011;13311;51.386;0.016;2022-07-11T07:59:24;2.47;;;1.25;;
25359;SDS011;13311;51.386;0.016;2022-07-11T08:04:25;1.90;;;0.90;;
25359;SDS011;13311;51.386;0.016;2022-07-11T08:09:26;2.08;;;1.13;;
25359;SDS011;13311;51.386;0.016;2022-07-11T08:14:27;0.90;;;0.90;;
25359;SDS011;13311;51.386;0.016;2022-07-11T08:19:27;1.30;;;0.98;;
25359;SDS011;13311;51.386;0.016;2022-07-11T08:24:30;2.63;;;0.90;;
25359;SDS011;13311;51.386;0.016;2022-07-11T08:29:31;3.25;;;0.90;;
25359;SDS011;13311;51.386;0.016;2022-07-11T08:34:32;3.33;;;1.20;;
25359;SDS011;13311;51.386;0.016;2022-07-11T08:39:33;1.45;;;0.82;;
25359;SDS011;13311;51.386;0.016;2022-07-11T08:44:33;2.92;;;0.77;;
25359;SDS011;13311;51.386;0.016;2022-07-11T08:49:35;1.45;;;1.25;;
25359;SDS011;13311;51.386;0.016;2022-07-11T08:54:35;1.77;;;1.20;;
25359;SDS011;13311;51.386;0.016;2022-07-11T08:59:37;2.10;;;0.90;;
25359;SDS011;13311;51.386;0.016;2022-07-11T09:04:42;3.80;;;1.77;;
25359;SDS011;13311;51.386;0.016;2022-07-11T09:09:43;3.42;;;1.60;;
25359;SDS011;13311;51.386;0.016;2022-07-11T09:14:47;3.00;;;1.20;;
25359;SDS011;13311;51.386;0.016;2022-07-11T09:19:49;3.80;;;1.50;;
25359;SDS011;13311;51.386;0.016;2022-07-11T09:25:04;5.07;;;0.93;;
25359;SDS011;13311;51.386;0.016;2022-07-11T09:35:33;2.08;;;1.33;;
25359;SDS011;13311;51.386;0.016;2022-07-11T09:40:36;3.25;;;1.20;;
25359;SDS011;13311;51.386;0.016;2022-07-11T09:45:38;2.78;;;1.17;;
25359;SDS011;13311;51.386;0.016;2022-07-11T09:50:53;0.80;;;0.70;;
25359;SDS011;13311;51.386;0.016;2022-07-11T09:55:56;1.48;;;0.88;;
25359;SDS011;13311;51.386;0.016;2022-07-11T10:00:57;3.78;;;0.85;;
25359;SDS011;13311;51.386;0.016;2022-07-11T10:05:58;2.35;;;1.52;;
25359;SDS011;13311;51.386;0.016;2022-07-11T10:10:59;1.33;;;1.05;;
25359;SDS011;13311;51.386;0.016;2022-07-11T10:16:00;3.20;;;1.20;;
25359;SDS011;13311;51.386;0.016;2022-07-11T10:21:15;0.90;;;0.85;;
25359;SDS011;13311;51.386;0.016;2022-07-11T10:26:32;2.42;;;1.23;;
25359;SDS011;13311;51.386;0.016;2022-07-11T10:31:43;1.30;;;1.20;;
25359;SDS011;13311;51.386;0.016;2022-07-11T10:37:04;2.72;;;0.93;;
25359;SDS011;13311;51.386;0.016;2022-07-11T10:42:07;1.67;;;1.30;;
25359;SDS011;13311;51.386;0.016;2022-07-11T10:52:51;2.08;;;1.00;;
25359;SDS011;13311;51.386;0.016;2022-07-11T10:58:08;1.25;;;1.15;;
25359;SDS011;13311;51.386;0.016;2022-07-11T11:03:21;2.05;;;0.80;;
25359;SDS011;13311;51.386;0.016;2022-07-11T11:13:38;0.90;;;0.90;;
25359;SDS011;13311;51.386;0.016;2022-07-11T11:18:43;4.05;;;1.77;;
25359;SDS011;13311;51.386;0.016;2022-07-11T11:23:45;1.75;;;1.20;;
25359;SDS011;13311;51.386;0.016;2022-07-11T11:29:05;5.60;;;1.75;;
25359;SDS011;13311;51.386;0.016;2022-07-11T11:34:06;4.32;;;1.20;;
25359;SDS011;13311;51.386;0.016;2022-07-11T11:39:07;2.20;;;1.55;;
25359;SDS011;13311;51.386;0.016;2022-07-11T11:44:08;1.65;;;1.33;;
25359;SDS011;13311;51.386;0.016;2022-07-11T11:49:09;47.92;;;7.00;;
25359;SDS011;13311;51.386;0.016;2022-07-11T11:54:10;3.45;;;1.50;;
25359;SDS011;13311;51.386;0.016;2022-07-11T11:59:11;3.88;;;1.77;;
25359;SDS011;13311;51.386;0.016;2022-07-11T12:04:16;2.95;;;1.40;;
25359;SDS011;13311;51.386;0.016;2022-07-11T12:09:18;3.78;;;1.17;;
25359;SDS011;13311;51.386;0.016;2022-07-11T12:14:40;2.83;;;2.10;;
25359;SDS011;13311;51.386;0.016;2022-07-11T12:19:40;2.00;;;1.40;;
25359;SDS011;13311;51.386;0.016;2022-07-11T12:24:47;1.98;;;1.35;;
25359;SDS011;13311;51.386;0.016;2022-07-11T12:29:49;2.55;;;1.55;;
25359;SDS011;13311;51.386;0.016;2022-07-11T12:34:51;3.55;;;1.85;;
25359;SDS011;13311;51.386;0.016;2022-07-11T12:39:53;2.47;;;1.67;;
25359;SDS011;13311;51.386;0.016;2022-07-11T12:45:06;2.33;;;1.75;;
25359;SDS011;13311;51.386;0.016;2022-07-11T12:50:16;1.67;;;1.33;;
25359;SDS011;13311;51.386;0.016;2022-07-11T12:55:21;2.88;;;1.33;;
25359;SDS011;13311;51.386;0.016;2022-07-11T13:00:28;2.50;;;1.27;;
25359;SDS011;13311;51.386;0.016;2022-07-11T13:05:45;2.00;;;1.55;;
25359;SDS011;13311;51.386;0.016;2022-07-11T13:10:50;3.50;;;2.33;;
25359;SDS011;13311;51.386;0.016;2022-07-11T13:15:50;2.20;;;1.58;;
25359;SDS011;13311;51.386;0.016;2022-07-11T13:20:51;1.23;;;1.10;;
25359;SDS011;13311;51.386;0.016;2022-07-11T13:25:52;4.00;;;1.70;;
25359;SDS011;13311;51.386;0.016;2022-07-11T13:30:54;3.15;;;2.00;;
25359;SDS011;13311;51.386;0.016;2022-07-11T13:35:55;6.00;;;1.92;;
25359;SDS011;13311;51.386;0.016;2022-07-11T13:40:56;1.50;;;1.20;;
25359;SDS011;13311;51.386;0.016;2022-07-11T13:45:58;5.50;;;1.50;;
25359;SDS011;13311;51.386;0.016;2022-07-11T13:50:59;2.55;;;1.70;;
25359;SDS011;13311;51.386;0.016;2022-07-11T13:56:00;3.10;;;2.00;;
25359;SDS011;13311;51.386;0.016;2022-07-11T14:01:00;1.98;;;1.15;;
25359;SDS011;13311;51.386;0.016;2022-07-11T14:06:01;3.72;;;1.50;;
25359;SDS011;13311;51.386;0.016;2022-07-11T14:11:02;5.63;;;1.88;;
25359;SDS011;13311;51.386;0.016;2022-07-11T14:16:03;2.95;;;1.25;;
25359;SDS011;13311;51.386;0.016;2022-07-11T14:21:06;1.73;;;1.17;;
25359;SDS011;13311;51.386;0.016;2022-07-11T14:26:07;4.53;;;1.48;;
25359;SDS011;13311;51.386;0.016;2022-07-11T14:31:11;4.25;;;1.80;;
25359;SDS011;13311;51.386;0.016;2022-07-11T14:36:12;1.88;;;1.20;;
25359;SDS011;13311;51.386;0.016;2022-07-11T14:41:13;2.88;;;1.45;;
25359;SDS011;13311;51.386;0.016;2022-07-11T14:46:18;2.65;;;1.50;;
25359;SDS011;13311;51.386;0.016;2022-07-11T14:51:19;5.00;;;1.90;;
25359;SDS011;13311;51.386;0.016;2022-07-11T14:56:20;2.42;;;1.40;;
25359;SDS011;13311;51.386;0.016;2022-07-11T15:01:21;2.15;;;1.50;;
25359;SDS011;13311;51.386;0.016;2022-07-11T15:06:22;3.17;;;1.40;;
25359;SDS011;13311;51.386;0.016;2022-07-11T15:11:42;2.72;;;1.35;;
25359;SDS011;13311;51.386;0.016;2022-07-11T15:17:02;3.13;;;1.33;;
25359;SDS011;13311;51.386;0.016;2022-07-11T15:22:03;2.47;;;1.30;;
25359;SDS011;13311;51.386;0.016;2022-07-11T15:27:05;1.95;;;1.48;;
25359;SDS011;13311;51.386;0.016;2022-07-11T15:32:06;3.40;;;1.55;;
25359;SDS011;13311;51.386;0.016;2022-07-11T15:37:07;3.67;;;1.20;;
25359;SDS011;13311;51.386;0.016;2022-07-11T15:42:08;12.20;;;2.15;;
25359;SDS011;13311;51.386;0.016;2022-07-11T15:47:09;1.88;;;1.20;;
25359;SDS011;13311;51.386;0.016;2022-07-11T15:52:10;3.20;;;1.40;;
25359;SDS011;13311;51.386;0.016;2022-07-11T15:57:11;2.97;;;1.38;;
25359;SDS011;13311;51.386;0.016;2022-07-11T16:02:11;1.85;;;1.15;;
25359;SDS011;13311;51.386;0.016;2022-07-11T16:07:13;1.27;;;1.00;;
25359;SDS011;13311;51.386;0.016;2022-07-11T16:12:15;3.47;;;1.08;;
25359;SDS011;13311;51.386;0.016;2022-07-11T16:17:15;2.88;;;1.20;;
25359;SDS011;13311;51.386;0.016;2022-07-11T16:22:16;2.72;;;1.30;;
25359;SDS011;13311;51.386;0.016;2022-07-11T16:27:17;1.95;;;1.10;;
25359;SDS011;13311;51.386;0.016;2022-07-11T16:32:18;3.05;;;0.85;;
25359;SDS011;13311;51.386;0.016;2022-07-11T16:37:19;2.22;;;1.10;;
25359;SDS011;13311;51.386;0.016;2022-07-11T16:42:20;1.85;;;1.50;;
25359;SDS011;13311;51.386;0.016;2022-07-11T16:47:39;1.65;;;1.10;;
25359;SDS011;13311;51.386;0.016;2022-07-11T16:52:41;4.85;;;1.50;;
25359;SDS011;13311;51.386;0.016;2022-07-11T16:57:42;2.70;;;1.23;;
25359;SDS011;13311;51.386;0.016;2022-07-11T17:02:42;2.05;;;1.00;;
25359;SDS011;13311;51.386;0.016;2022-07-11T17:07:43;2.58;;;1.08;;
25359;SDS011;13311;51.386;0.016;2022-07-11T17:13:04;2.72;;;1.30;;
25359;SDS011;13311;51.386;0.016;2022-07-11T17:18:05;2.42;;;1.23;;
25359;SDS011;13311;51.386;0.016;2022-07-11T17:23:06;2.92;;;1.77;;
25359;SDS011;13311;51.386;0.016;2022-07-11T17:28:06;5.05;;;1.50;;
25359;SDS011;13311;51.386;0.016;2022-07-11T17:33:08;5.75;;;1.52;;
25359;SDS011;13311;51.386;0.016;2022-07-11T17:38:09;6.65;;;1.92;;
25359;SDS011;13311;51.386;0.016;2022-07-11T17:43:11;4.25;;;1.63;;
25359;SDS011;13311;51.386;0.016;2022-07-11T17:48:12;2.75;;;1.30;;
25359;SDS011;13311;51.386;0.016;2022-07-11T17:53:14;4.15;;;1.40;;
25359;SDS011;13311;51.386;0.016;2022-07-11T17:58:16;2.42;;;1.40;;
25359;SDS011;13311;51.386;0.016;2022-07-11T18:03:17;2.40;;;1.25;;
25359;SDS011;13311;51.386;0.016;2022-07-11T18:08:17;1.50;;;1.20;;
25359;SDS011;13311;51.386;0.016;2022-07-11T18:13:18;20.95;;;2.67;;
25359;SDS011;13311;51.386;0.016;2022-07-11T18:18:19;2.72;;;1.30;;
25359;SDS011;13311;51.386;0.016;2022-07-11T18:23:19;2.78;;;1.42;;
25359;SDS011;13311;51.386;0.016;2022-07-11T18:28:20;3.05;;;1.30;;
25359;SDS011;13311;51.386;0.016;2022-07-11T18:33:21;5.47;;;1.40;;
25359;SDS011;13311;51.386;0.016;2022-07-11T18:38:32;2.53;;;1.38;;
25359;SDS011;13311;51.386;0.016;2022-07-11T18:43:52;1.88;;;1.17;;
25359;SDS011;13311;51.386;0.016;2022-07-11T18:49:00;3.93;;;1.50;;
25359;SDS011;13311;51.386;0.016;2022-07-11T18:54:01;3.88;;;1.40;;
25359;SDS011;13311;51.386;0.016;2022-07-11T18:59:02;3.00;;;1.17;;
25359;SDS011;13311;51.386;0.016;2022-07-11T19:04:03;2.45;;;1.60;;
25359;SDS011;13311;51.386;0.016;2022-07-11T19:09:04;2.35;;;1.45;;
25359;SDS011;13311;51.386;0.016;2022-07-11T19:14:07;2.38;;;1.33;;
25359;SDS011;13311;51.386;0.016;2022-07-11T19:19:08;2.42;;;1.23;;
25359;SDS011;13311;51.386;0.016;2022-07-11T19:24:09;2.97;;;1.90;;
25359;SDS011;13311;51.386;0.016;2022-07-11T19:29:11;4.60;;;1.45;;
25359;SDS011;13311;51.386;0.016;2022-07-11T19:34:12;3.88;;;1.77;;
25359;SDS011;13311;51.386;0.016;2022-07-11T19:39:12;4.05;;;1.70;;
25359;SDS011;13311;51.386;0.016;2022-07-11T19:44:14;4.63;;;1.48;;
25359;SDS011;13311;51.386;0.016;2022-07-11T19:49:18;3.97;;;1.90;;
25359;SDS011;13311;51.386;0.016;2022-07-11T19:54:18;3.05;;;1.40;;
25359;SDS011;13311;51.386;0.016;2022-07-11T19:59:38;5.30;;;1.40;;
25359;SDS011;13311;51.386;0.016;2022-07-11T20:04:39;2.58;;;1.67;;
25359;SDS011;13311;51.386;0.016;2022-07-11T20:09:39;3.10;;;1.45;;
25359;SDS011;13311;51.386;0.016;2022-07-11T20:14:40;2.72;;;1.65;;
25359;SDS011;13311;51.386;0.016;2022-07-11T20:19:41;5.28;;;2.60;;
25359;SDS011;13311;51.386;0.016;2022-07-11T20:24:42;5.75;;;2.20;;
25359;SDS011;13311;51.386;0.016;2022-07-11T20:29:43;3.17;;;1.90;;
25359;SDS011;13311;51.386;0.016;2022-07-11T20:34:44;3.47;;;2.33;;
25359;SDS011;13311;51.386;0.016;2022-07-11T20:39:45;5.22;;;2.05;;
25359;SDS011;13311;51.386;0.016;2022-07-11T20:44:46;6.80;;;2.50;;
25359;SDS011;13311;51.386;0.016;2022-07-11T20:49:48;4.70;;;2.45;;
25359;SDS011;13311;51.386;0.016;2022-07-11T20:54:49;2.08;;;1.40;;
25359;SDS011;13311;51.386;0.016;2022-07-11T20:59:51;3.50;;;1.27;;
25359;SDS011;13311;51.386;0.016;2022-07-11T21:04:53;1.77;;;1.20;;
25359;SDS011;13311;51.386;0.016;2022-07-11T21:09:54;2.97;;;1.63;;
25359;SDS011;13311;51.386;0.016;2022-07-11T21:14:54;6.82;;;2.63;;
25359;SDS011;13311;51.386;0.016;2022-07-11T21:19:55;6.40;;;2.80;;
25359;SDS011;13311;51.386;0.016;2022-07-11T21:24:56;10.13;;;2.40;;
25359;SDS011;13311;51.386;0.016;2022-07-11T21:29:57;6.65;;;2.15;;
25359;SDS011;13311;51.386;0.016;2022-07-11T21:34:58;4.22;;;2.38;;
25359;SDS011;13311;51.386;0.016;2022-07-11T21:39:58;8.10;;;2.63;;
25359;SDS011;13311;51.386;0.016;2022-07-11T21:44:59;13.60;;;4.18;;
25359;SDS011;13311;51.386;0.016;2022-07-11T21:50:00;14.18;;;6.82;;
25359;SDS011;13311;51.386;0.016;2022-07-11T21:55:01;12.00;;;5.65;;
25359;SDS011;13311;51.386;0.016;2022-07-11T22:00:03;13.38;;;5.53;;
25359;SDS011;13311;51.386;0.016;2022-07-11T22:05:09;8.75;;;4.22;;
25359;SDS011;13311;51.386;0.016;2022-07-11T22:10:10;6.68;;;2.97;;
25359;SDS011;13311;51.386;0.016;2022-07-11T22:15:11;3.42;;;1.92;;
25359;SDS011;13311;51.386;0.016;2022-07-11T22:20:11;2.55;;;1.52;;
25359;SDS011;13311;51.386;0.016;2022-07-11T22:25:12;10.35;;;2.80;;
25359;SDS011;13311;51.386;0.016;2022-07-11T22:30:13;2.83;;;1.80;;
25359;SDS011;13311;51.386;0.016;2022-07-11T22:35:14;5.20;;;1.48;;
25359;SDS011;13311;51.386;0.016;2022-07-11T22:40:16;4.38;;;1.80;;
25359;SDS011;13311;51.386;0.016;2022-07-11T22:45:18;1.48;;;1.20;;
25359;SDS011;13311;51.386;0.016;2022-07-11T22:50:18;1.35;;;1.20;;
25359;SDS011;13311;51.386;0.016;2022-07-11T22:55:20;3.53;;;1.45;;
25359;SDS011;13311;51.386;0.016;2022-07-11T23:00:21;2.70;;;1.73;;
25359;SDS011;13311;51.386;0.016;2022-07-11T23:05:22;1.95;;;1.30;;
25359;SDS011;13311;51.386;0.016;2022-07-11T23:10:23;2.35;;;1.65;;
25359;SDS011;13311;51.386;0.016;2022-07-11T23:15:24;2.22;;;1.58;;
25359;SDS011;13311;51.386;0.016;2022-07-11T23:20:24;1.45;;;1.20;;
25359;SDS011;13311;51.386;0.016;2022-07-11T23:25:25;2.03;;;1.50;;
25359;SDS011;13311;51.386;0.016;2022-07-11T23:30:26;3.70;;;1.75;;
25359;SDS011;13311;51.386;0.016;2022-07-11T23:35:27;2.13;;;1.48;;
25359;SDS011;13311;51.386;0.016;2022-07-11T23:40:27;2.30;;;1.70;;
25359;SDS011;13311;51.386;0.016;2022-07-11T23:45:28;3.53;;;1.50;;
25359;SDS011;13311;51.386;0.016;2022-07-11T23:50:30;2.92;;;1.27;;
25359;SDS011;13311;51.386;0.016;2022-07-11T23:55:31;1.70;;;1.25;;
